sensor_id;sensor_type;location;lat;lon;timestamp;temperature;humidity
20398;DHT22;10358;49.590;11.030;2023-11-22T00:02:17;4.90;99.90
20398;DHT22;10358;49.590;11.030;2023-11-22T00:04:43;4.90;99.90
20398;DHT22;10358;49.590;11.030;2023-11-22T00:07:09;4.80;99.90
20398;DHT22;10358;49.590;11.030;2023-11-22T00:09:34;4.90;99.90
20398;DHT22;10358;49.590;11.030;2023-11-22T00:12:00;4.90;99.90
20398;DHT22;10358;49.590;11.030;2023-11-22T00:14:26;4.90;99.90
20398;DHT22;10358;49.590;11.030;2023-11-22T00:16:52;4.90;99.90
20398;DHT22;10358;49.590;11.030;2023-11-22T00:19:17;4.90;99.90
20398;DHT22;10358;49.590;11.030;2023-11-22T00:21:47;4.80;99.90
20398;DHT22;10358;49.590;11.030;2023-11-22T00:24:13;4.60;99.90
20398;DHT22;10358;49.590;11.030;2023-11-22T00:26:38;4.50;99.90
20398;DHT22;10358;49.590;11.030;2023-11-22T00:29:04;4.40;99.90
20398;DHT22;10358;49.590;11.030;2023-11-22T00:31:30;4.30;99.90
20398;DHT22;10358;49.590;11.030;2023-11-22T00:33:56;4.40;99.90
20398;DHT22;10358;49.590;11.030;2023-11-22T00:36:21;4.40;99.90
20398;DHT22;10358;49.590;11.030;2023-11-22T00:38:47;4.30;99.90
20398;DHT22;10358;49.590;11.030;2023-11-22T00:41:13;4.30;99.90
20398;DHT22;10358;49.590;11.030;2023-11-22T00:43:40;4.30;99.90
20398;DHT22;10358;49.590;11.030;2023-11-22T00:46:05;4.30;99.90
20398;DHT22;10358;49.590;11.030;2023-11-22T00:48:31;4.20;99.90
20398;DHT22;10358;49.590;11.030;2023-11-22T00:50:58;4.10;99.90
20398;DHT22;10358;49.590;11.030;2023-11-22T00:53:23;4.10;99.90
20398;DHT22;10358;49.590;11.030;2023-11-22T00:55:49;4.10;99.90
20398;DHT22;10358;49.590;11.030;2023-11-22T00:58:15;4.10;99.90
20398;DHT22;10358;49.590;11.030;2023-11-22T01:00:40;4.10;99.90
20398;DHT22;10358;49.590;11.030;2023-11-22T01:03:06;4.00;99.90
20398;DHT22;10358;49.590;11.030;2023-11-22T01:05:34;4.10;99.90
20398;DHT22;10358;49.590;11.030;2023-11-22T01:08:00;4.10;99.90
20398;DHT22;10358;49.590;11.030;2023-11-22T01:10:25;4.00;99.90
20398;DHT22;10358;49.590;11.030;2023-11-22T01:12:51;4.10;99.90
20398;DHT22;10358;49.590;11.030;2023-11-22T01:15:16;4.10;99.90
20398;DHT22;10358;49.590;11.030;2023-11-22T01:17:42;4.10;99.90
20398;DHT22;10358;49.590;11.030;2023-11-22T01:20:08;4.10;99.90
20398;DHT22;10358;49.590;11.030;2023-11-22T01:22:35;4.10;99.90
20398;DHT22;10358;49.590;11.030;2023-11-22T01:25:03;4.10;99.90
20398;DHT22;10358;49.590;11.030;2023-11-22T01:27:30;4.10;99.90
20398;DHT22;10358;49.590;11.030;2023-11-22T01:29:55;4.10;99.90
20398;DHT22;10358;49.590;11.030;2023-11-22T01:32:21;4.10;99.90
20398;DHT22;10358;49.590;11.030;2023-11-22T01:34:46;4.10;99.90
20398;DHT22;10358;49.590;11.030;2023-11-22T01:37:12;4.10;99.90
20398;DHT22;10358;49.590;11.030;2023-11-22T01:39:39;4.10;99.90
20398;DHT22;10358;49.590;11.030;2023-11-22T01:42:07;4.10;99.90
20398;DHT22;10358;49.590;11.030;2023-11-22T01:44:32;4.10;99.90
20398;DHT22;10358;49.590;11.030;2023-11-22T01:46:58;4.10;99.90
20398;DHT22;10358;49.590;11.030;2023-11-22T01:49:24;4.10;99.90
20398;DHT22;10358;49.590;11.030;2023-11-22T01:51:49;4.10;99.90
20398;DHT22;10358;49.590;11.030;2023-11-22T01:54:16;4.10;99.90
20398;DHT22;10358;49.590;11.030;2023-11-22T01:56:44;4.10;99.90
20398;DHT22;10358;49.590;11.030;2023-11-22T01:59:11;4.10;99.90
20398;DHT22;10358;49.590;11.030;2023-11-22T02:01:36;4.10;99.90
20398;DHT22;10358;49.590;11.030;2023-11-22T02:04:02;4.10;99.90
20398;DHT22;10358;49.590;11.030;2023-11-22T02:06:28;4.10;99.90
20398;DHT22;10358;49.590;11.030;2023-11-22T02:08:56;4.10;99.90
20398;DHT22;10358;49.590;11.030;2023-11-22T02:11:21;4.10;99.90
20398;DHT22;10358;49.590;11.030;2023-11-22T02:13:51;4.10;99.90
20398;DHT22;10358;49.590;11.030;2023-11-22T02:16:17;4.10;99.90
20398;DHT22;10358;49.590;11.030;2023-11-22T02:18:47;4.10;99.90
20398;DHT22;10358;49.590;11.030;2023-11-22T02:21:13;4.10;99.90
20398;DHT22;10358;49.590;11.030;2023-11-22T02:23:40;4.10;99.90
20398;DHT22;10358;49.590;11.030;2023-11-22T02:26:06;4.10;99.90
20398;DHT22;10358;49.590;11.030;2023-11-22T02:28:31;4.10;99.90
20398;DHT22;10358;49.590;11.030;2023-11-22T02:30:57;4.10;99.90
20398;DHT22;10358;49.590;11.030;2023-11-22T02:33:23;4.10;99.90
20398;DHT22;10358;49.590;11.030;2023-11-22T02:35:48;4.00;99.90
20398;DHT22;10358;49.590;11.030;2023-11-22T02:38:15;4.00;99.90
20398;DHT22;10358;49.590;11.030;2023-11-22T02:40:43;4.00;99.90
20398;DHT22;10358;49.590;11.030;2023-11-22T02:43:09;3.90;99.90
20398;DHT22;10358;49.590;11.030;2023-11-22T02:45:36;3.80;99.90
20398;DHT22;10358;49.590;11.030;2023-11-22T02:48:02;3.80;99.90
20398;DHT22;10358;49.590;11.030;2023-11-22T02:50:29;3.80;99.90
20398;DHT22;10358;49.590;11.030;2023-11-22T02:52:57;3.80;99.90
20398;DHT22;10358;49.590;11.030;2023-11-22T02:55:23;3.80;99.90
20398;DHT22;10358;49.590;11.030;2023-11-22T02:57:50;3.80;99.90
20398;DHT22;10358;49.590;11.030;2023-11-22T03:00:16;3.80;99.90
20398;DHT22;10358;49.590;11.030;2023-11-22T03:02:45;3.80;99.90
20398;DHT22;10358;49.590;11.030;2023-11-22T03:05:12;3.80;99.90
20398;DHT22;10358;49.590;11.030;2023-11-22T03:07:39;3.80;99.90
20398;DHT22;10358;49.590;11.030;2023-11-22T03:10:06;3.80;99.90
20398;DHT22;10358;49.590;11.030;2023-11-22T03:12:35;3.80;99.90
20398;DHT22;10358;49.590;11.030;2023-11-22T03:15:01;3.80;99.90
20398;DHT22;10358;49.590;11.030;2023-11-22T03:17:28;3.80;99.90
20398;DHT22;10358;49.590;11.030;2023-11-22T03:19:54;3.80;99.90
20398;DHT22;10358;49.590;11.030;2023-11-22T03:22:25;3.80;99.90
20398;DHT22;10358;49.590;11.030;2023-11-22T03:24:51;3.80;99.90
20398;DHT22;10358;49.590;11.030;2023-11-22T03:27:18;3.80;99.90
20398;DHT22;10358;49.590;11.030;2023-11-22T03:29:43;3.80;99.90
20398;DHT22;10358;49.590;11.030;2023-11-22T03:32:09;3.60;99.90
20398;DHT22;10358;49.590;11.030;2023-11-22T03:34:36;3.60;99.90
20398;DHT22;10358;49.590;11.030;2023-11-22T03:37:02;3.60;99.90
20398;DHT22;10358;49.590;11.030;2023-11-22T03:39:27;3.60;99.90
20398;DHT22;10358;49.590;11.030;2023-11-22T03:41:53;3.60;99.90
20398;DHT22;10358;49.590;11.030;2023-11-22T03:44:18;3.70;99.90
20398;DHT22;10358;49.590;11.030;2023-11-22T03:46:44;3.70;99.90
20398;DHT22;10358;49.590;11.030;2023-11-22T03:49:10;3.70;99.90
20398;DHT22;10358;49.590;11.030;2023-11-22T03:51:36;3.70;99.90
20398;DHT22;10358;49.590;11.030;2023-11-22T03:54:02;3.60;99.90
20398;DHT22;10358;49.590;11.030;2023-11-22T03:56:28;3.60;99.90
20398;DHT22;10358;49.590;11.030;2023-11-22T03:58:54;3.60;99.90
20398;DHT22;10358;49.590;11.030;2023-11-22T04:01:20;3.60;99.90
20398;DHT22;10358;49.590;11.030;2023-11-22T04:03:46;3.60;99.90
20398;DHT22;10358;49.590;11.030;2023-11-22T04:06:16;3.60;99.90
20398;DHT22;10358;49.590;11.030;2023-11-22T04:08:46;3.60;99.90
20398;DHT22;10358;49.590;11.030;2023-11-22T04:11:12;3.60;99.90
20398;DHT22;10358;49.590;11.030;2023-11-22T04:13:38;3.60;99.90
20398;DHT22;10358;49.590;11.030;2023-11-22T04:16:07;3.60;99.90
20398;DHT22;10358;49.590;11.030;2023-11-22T04:18:39;3.60;99.90
20398;DHT22;10358;49.590;11.030;2023-11-22T04:21:04;3.60;99.90
20398;DHT22;10358;49.590;11.030;2023-11-22T04:23:31;3.60;99.90
20398;DHT22;10358;49.590;11.030;2023-11-22T04:25:58;3.50;99.90
20398;DHT22;10358;49.590;11.030;2023-11-22T04:28:24;3.60;99.90
20398;DHT22;10358;49.590;11.030;2023-11-22T04:30:51;3.60;99.90
20398;DHT22;10358;49.590;11.030;2023-11-22T04:33:17;3.60;99.90
20398;DHT22;10358;49.590;11.030;2023-11-22T04:35:43;3.60;99.90
20398;DHT22;10358;49.590;11.030;2023-11-22T04:38:08;3.60;99.90
20398;DHT22;10358;49.590;11.030;2023-11-22T04:40:34;3.60;99.90
20398;DHT22;10358;49.590;11.030;2023-11-22T04:43:00;3.60;99.90
20398;DHT22;10358;49.590;11.030;2023-11-22T04:45:25;3.60;99.90
20398;DHT22;10358;49.590;11.030;2023-11-22T04:47:51;3.60;99.90
20398;DHT22;10358;49.590;11.030;2023-11-22T04:50:17;3.50;99.90
20398;DHT22;10358;49.590;11.030;2023-11-22T04:52:43;3.50;99.90
20398;DHT22;10358;49.590;11.030;2023-11-22T04:55:08;3.50;99.90
20398;DHT22;10358;49.590;11.030;2023-11-22T04:57:34;3.50;99.90
20398;DHT22;10358;49.590;11.030;2023-11-22T05:00:00;3.50;99.90
20398;DHT22;10358;49.590;11.030;2023-11-22T05:02:26;3.50;99.90
20398;DHT22;10358;49.590;11.030;2023-11-22T05:04:53;3.50;99.90
20398;DHT22;10358;49.590;11.030;2023-11-22T05:07:18;3.50;99.90
20398;DHT22;10358;49.590;11.030;2023-11-22T05:09:46;3.50;99.90
20398;DHT22;10358;49.590;11.030;2023-11-22T05:12:12;3.50;99.90
20398;DHT22;10358;49.590;11.030;2023-11-22T05:14:38;3.40;99.90
20398;DHT22;10358;49.590;11.030;2023-11-22T05:17:04;3.40;99.90
20398;DHT22;10358;49.590;11.030;2023-11-22T05:19:30;3.40;99.90
20398;DHT22;10358;49.590;11.030;2023-11-22T05:21:55;3.40;99.90
20398;DHT22;10358;49.590;11.030;2023-11-22T05:24:21;3.30;99.90
20398;DHT22;10358;49.590;11.030;2023-11-22T05:26:47;3.30;99.90
20398;DHT22;10358;49.590;11.030;2023-11-22T05:29:12;3.20;99.90
20398;DHT22;10358;49.590;11.030;2023-11-22T05:31:38;3.20;99.90
20398;DHT22;10358;49.590;11.030;2023-11-22T05:34:04;3.20;99.90
20398;DHT22;10358;49.590;11.030;2023-11-22T05:36:29;3.10;99.90
20398;DHT22;10358;49.590;11.030;2023-11-22T05:38:55;3.10;99.90
20398;DHT22;10358;49.590;11.030;2023-11-22T05:41:24;3.10;99.90
20398;DHT22;10358;49.590;11.030;2023-11-22T05:43:53;3.10;99.90
20398;DHT22;10358;49.590;11.030;2023-11-22T05:46:23;3.10;99.90
20398;DHT22;10358;49.590;11.030;2023-11-22T05:48:50;3.00;99.90
20398;DHT22;10358;49.590;11.030;2023-11-22T05:51:16;3.00;99.90
20398;DHT22;10358;49.590;11.030;2023-11-22T05:53:42;3.00;99.90
20398;DHT22;10358;49.590;11.030;2023-11-22T05:56:08;2.90;99.90
20398;DHT22;10358;49.590;11.030;2023-11-22T05:58:37;2.90;99.90
20398;DHT22;10358;49.590;11.030;2023-11-22T06:01:13;2.90;99.90
20398;DHT22;10358;49.590;11.030;2023-11-22T06:03:38;2.80;99.90
20398;DHT22;10358;49.590;11.030;2023-11-22T06:06:07;2.80;99.90
20398;DHT22;10358;49.590;11.030;2023-11-22T06:08:33;2.80;99.90
20398;DHT22;10358;49.590;11.030;2023-11-22T06:10:58;2.80;99.90
20398;DHT22;10358;49.590;11.030;2023-11-22T06:13:25;2.80;99.90
20398;DHT22;10358;49.590;11.030;2023-11-22T06:15:51;2.80;99.90
20398;DHT22;10358;49.590;11.030;2023-11-22T06:18:16;2.80;99.90
20398;DHT22;10358;49.590;11.030;2023-11-22T06:20:42;2.90;99.90
20398;DHT22;10358;49.590;11.030;2023-11-22T06:23:08;2.90;99.90
20398;DHT22;10358;49.590;11.030;2023-11-22T06:25:34;2.90;99.90
20398;DHT22;10358;49.590;11.030;2023-11-22T06:28:01;2.90;99.90
20398;DHT22;10358;49.590;11.030;2023-11-22T06:30:27;2.90;99.90
20398;DHT22;10358;49.590;11.030;2023-11-22T06:32:52;2.90;99.90
20398;DHT22;10358;49.590;11.030;2023-11-22T06:35:19;2.90;99.90
20398;DHT22;10358;49.590;11.030;2023-11-22T06:37:44;2.90;99.90
20398;DHT22;10358;49.590;11.030;2023-11-22T06:40:13;2.90;99.90
20398;DHT22;10358;49.590;11.030;2023-11-22T06:42:40;2.90;99.90
20398;DHT22;10358;49.590;11.030;2023-11-22T06:45:06;2.90;99.90
20398;DHT22;10358;49.590;11.030;2023-11-22T06:47:42;2.90;99.90
20398;DHT22;10358;49.590;11.030;2023-11-22T06:50:08;2.90;99.90
20398;DHT22;10358;49.590;11.030;2023-11-22T06:52:38;2.90;99.90
20398;DHT22;10358;49.590;11.030;2023-11-22T06:55:05;2.90;99.90
20398;DHT22;10358;49.590;11.030;2023-11-22T06:57:33;2.80;99.90
20398;DHT22;10358;49.590;11.030;2023-11-22T06:59:59;2.80;99.90
20398;DHT22;10358;49.590;11.030;2023-11-22T07:02:26;2.80;99.90
20398;DHT22;10358;49.590;11.030;2023-11-22T07:04:52;2.90;99.90
20398;DHT22;10358;49.590;11.030;2023-11-22T07:07:18;2.90;99.90
20398;DHT22;10358;49.590;11.030;2023-11-22T07:09:45;2.90;99.90
20398;DHT22;10358;49.590;11.030;2023-11-22T07:12:11;2.90;99.90
20398;DHT22;10358;49.590;11.030;2023-11-22T07:14:37;2.90;99.90
20398;DHT22;10358;49.590;11.030;2023-11-22T07:17:03;2.90;99.90
20398;DHT22;10358;49.590;11.030;2023-11-22T07:19:29;2.80;99.90
20398;DHT22;10358;49.590;11.030;2023-11-22T07:21:55;2.90;99.90
20398;DHT22;10358;49.590;11.030;2023-11-22T07:24:20;2.90;99.90
20398;DHT22;10358;49.590;11.030;2023-11-22T07:26:46;2.90;99.90
20398;DHT22;10358;49.590;11.030;2023-11-22T07:29:12;2.90;99.90
20398;DHT22;10358;49.590;11.030;2023-11-22T07:31:38;2.90;99.90
20398;DHT22;10358;49.590;11.030;2023-11-22T07:34:05;2.90;99.90
20398;DHT22;10358;49.590;11.030;2023-11-22T07:36:31;2.90;99.90
20398;DHT22;10358;49.590;11.030;2023-11-22T07:38:57;2.80;99.90
20398;DHT22;10358;49.590;11.030;2023-11-22T07:41:23;2.90;99.90
20398;DHT22;10358;49.590;11.030;2023-11-22T07:43:48;2.90;99.90
20398;DHT22;10358;49.590;11.030;2023-11-22T07:46:15;2.80;99.90
20398;DHT22;10358;49.590;11.030;2023-11-22T07:48:42;2.80;99.90
20398;DHT22;10358;49.590;11.030;2023-11-22T07:51:08;2.80;99.90
20398;DHT22;10358;49.590;11.030;2023-11-22T07:53:34;2.80;99.90
20398;DHT22;10358;49.590;11.030;2023-11-22T07:56:00;2.80;99.90
20398;DHT22;10358;49.590;11.030;2023-11-22T07:58:30;2.80;99.90
20398;DHT22;10358;49.590;11.030;2023-11-22T08:00:56;2.80;99.90
20398;DHT22;10358;49.590;11.030;2023-11-22T08:03:22;2.80;99.90
20398;DHT22;10358;49.590;11.030;2023-11-22T08:05:51;2.80;99.90
20398;DHT22;10358;49.590;11.030;2023-11-22T08:08:19;2.80;99.90
20398;DHT22;10358;49.590;11.030;2023-11-22T08:10:45;2.80;99.90
20398;DHT22;10358;49.590;11.030;2023-11-22T08:13:13;2.80;99.90
20398;DHT22;10358;49.590;11.030;2023-11-22T08:15:38;2.60;99.90
20398;DHT22;10358;49.590;11.030;2023-11-22T08:18:04;2.50;99.90
20398;DHT22;10358;49.590;11.030;2023-11-22T08:20:31;2.40;99.90
20398;DHT22;10358;49.590;11.030;2023-11-22T08:22:56;2.40;99.90
20398;DHT22;10358;49.590;11.030;2023-11-22T08:25:22;2.30;99.90
20398;DHT22;10358;49.590;11.030;2023-11-22T08:27:48;2.30;99.90
20398;DHT22;10358;49.590;11.030;2023-11-22T08:30:15;2.20;99.90
20398;DHT22;10358;49.590;11.030;2023-11-22T08:32:44;2.20;99.90
20398;DHT22;10358;49.590;11.030;2023-11-22T08:35:12;2.10;99.90
20398;DHT22;10358;49.590;11.030;2023-11-22T08:37:40;2.10;99.90
20398;DHT22;10358;49.590;11.030;2023-11-22T08:40:07;2.10;99.90
20398;DHT22;10358;49.590;11.030;2023-11-22T08:42:34;2.20;99.90
20398;DHT22;10358;49.590;11.030;2023-11-22T08:45:01;2.20;99.90
20398;DHT22;10358;49.590;11.030;2023-11-22T08:47:27;2.20;99.90
20398;DHT22;10358;49.590;11.030;2023-11-22T08:49:52;2.30;99.90
20398;DHT22;10358;49.590;11.030;2023-11-22T08:52:18;2.30;99.90
20398;DHT22;10358;49.590;11.030;2023-11-22T08:54:45;2.30;99.90
20398;DHT22;10358;49.590;11.030;2023-11-22T08:57:10;2.40;99.90
20398;DHT22;10358;49.590;11.030;2023-11-22T08:59:37;2.50;99.90
20398;DHT22;10358;49.590;11.030;2023-11-22T09:02:04;2.40;99.90
20398;DHT22;10358;49.590;11.030;2023-11-22T09:04:31;2.50;99.90
20398;DHT22;10358;49.590;11.030;2023-11-22T09:07:00;2.50;99.90
20398;DHT22;10358;49.590;11.030;2023-11-22T09:09:26;2.60;99.90
20398;DHT22;10358;49.590;11.030;2023-11-22T09:11:57;2.70;99.90
20398;DHT22;10358;49.590;11.030;2023-11-22T09:14:23;2.80;99.90
20398;DHT22;10358;49.590;11.030;2023-11-22T09:16:50;2.70;99.90
20398;DHT22;10358;49.590;11.030;2023-11-22T09:19:20;2.80;99.90
20398;DHT22;10358;49.590;11.030;2023-11-22T09:21:46;2.80;99.90
20398;DHT22;10358;49.590;11.030;2023-11-22T09:24:12;2.80;99.90
20398;DHT22;10358;49.590;11.030;2023-11-22T09:26:38;2.80;99.90
20398;DHT22;10358;49.590;11.030;2023-11-22T09:29:03;2.80;99.90
20398;DHT22;10358;49.590;11.030;2023-11-22T09:31:30;2.70;99.90
20398;DHT22;10358;49.590;11.030;2023-11-22T09:33:55;2.80;99.90
20398;DHT22;10358;49.590;11.030;2023-11-22T09:36:22;2.80;99.90
20398;DHT22;10358;49.590;11.030;2023-11-22T09:38:48;2.80;99.90
20398;DHT22;10358;49.590;11.030;2023-11-22T09:41:14;2.80;99.90
20398;DHT22;10358;49.590;11.030;2023-11-22T09:43:41;2.90;99.90
20398;DHT22;10358;49.590;11.030;2023-11-22T09:46:08;2.90;99.90
20398;DHT22;10358;49.590;11.030;2023-11-22T09:48:37;2.90;99.90
20398;DHT22;10358;49.590;11.030;2023-11-22T09:51:24;2.90;99.90
20398;DHT22;10358;49.590;11.030;2023-11-22T09:53:56;2.90;99.90
20398;DHT22;10358;49.590;11.030;2023-11-22T09:56:24;2.90;99.90
20398;DHT22;10358;49.590;11.030;2023-11-22T09:58:54;2.90;99.90
20398;DHT22;10358;49.590;11.030;2023-11-22T10:01:24;2.90;99.90
20398;DHT22;10358;49.590;11.030;2023-11-22T10:03:50;2.90;99.90
20398;DHT22;10358;49.590;11.030;2023-11-22T10:06:16;2.90;99.90
20398;DHT22;10358;49.590;11.030;2023-11-22T10:08:43;2.70;99.90
20398;DHT22;10358;49.590;11.030;2023-11-22T10:11:09;2.70;99.90
20398;DHT22;10358;49.590;11.030;2023-11-22T10:13:34;2.70;99.90
20398;DHT22;10358;49.590;11.030;2023-11-22T10:16:10;2.60;99.90
20398;DHT22;10358;49.590;11.030;2023-11-22T10:18:44;2.60;99.90
20398;DHT22;10358;49.590;11.030;2023-11-22T10:21:23;2.70;99.90
20398;DHT22;10358;49.590;11.030;2023-11-22T10:24:02;2.70;99.90
20398;DHT22;10358;49.590;11.030;2023-11-22T10:26:28;2.80;99.90
20398;DHT22;10358;49.590;11.030;2023-11-22T10:28:55;2.80;99.90
20398;DHT22;10358;49.590;11.030;2023-11-22T10:31:22;2.90;99.90
20398;DHT22;10358;49.590;11.030;2023-11-22T10:33:48;3.00;99.90
20398;DHT22;10358;49.590;11.030;2023-11-22T10:36:14;3.10;99.90
20398;DHT22;10358;49.590;11.030;2023-11-22T10:38:40;3.20;99.90
20398;DHT22;10358;49.590;11.030;2023-11-22T10:41:10;3.30;99.90
20398;DHT22;10358;49.590;11.030;2023-11-22T10:43:36;3.40;99.90
20398;DHT22;10358;49.590;11.030;2023-11-22T10:46:02;3.50;99.90
20398;DHT22;10358;49.590;11.030;2023-11-22T10:48:30;3.60;99.90
20398;DHT22;10358;49.590;11.030;2023-11-22T10:50:57;3.60;99.90
20398;DHT22;10358;49.590;11.030;2023-11-22T10:53:33;3.60;99.90
20398;DHT22;10358;49.590;11.030;2023-11-22T10:56:04;3.60;99.90
20398;DHT22;10358;49.590;11.030;2023-11-22T10:58:32;3.60;99.90
20398;DHT22;10358;49.590;11.030;2023-11-22T11:00:58;3.70;99.90
20398;DHT22;10358;49.590;11.030;2023-11-22T11:03:28;3.70;99.90
20398;DHT22;10358;49.590;11.030;2023-11-22T11:06:02;3.80;99.90
20398;DHT22;10358;49.590;11.030;2023-11-22T11:08:30;3.80;99.90
20398;DHT22;10358;49.590;11.030;2023-11-22T11:10:57;3.80;99.90
20398;DHT22;10358;49.590;11.030;2023-11-22T11:13:24;3.70;99.90
20398;DHT22;10358;49.590;11.030;2023-11-22T11:15:51;3.60;99.90
20398;DHT22;10358;49.590;11.030;2023-11-22T11:18:18;3.60;99.90
20398;DHT22;10358;49.590;11.030;2023-11-22T11:20:51;3.60;99.90
20398;DHT22;10358;49.590;11.030;2023-11-22T11:23:20;3.70;99.90
20398;DHT22;10358;49.590;11.030;2023-11-22T11:25:57;3.80;99.90
20398;DHT22;10358;49.590;11.030;2023-11-22T11:28:23;3.70;99.90
20398;DHT22;10358;49.590;11.030;2023-11-22T11:30:53;3.70;99.90
20398;DHT22;10358;49.590;11.030;2023-11-22T11:33:27;3.70;99.90
20398;DHT22;10358;49.590;11.030;2023-11-22T11:35:52;3.70;99.90
20398;DHT22;10358;49.590;11.030;2023-11-22T11:38:30;3.70;99.90
20398;DHT22;10358;49.590;11.030;2023-11-22T11:40:55;3.70;99.90
20398;DHT22;10358;49.590;11.030;2023-11-22T11:43:45;3.70;99.90
20398;DHT22;10358;49.590;11.030;2023-11-22T11:46:15;3.70;99.90
20398;DHT22;10358;49.590;11.030;2023-11-22T11:48:59;3.70;99.90
20398;DHT22;10358;49.590;11.030;2023-11-22T11:51:27;3.70;99.90
20398;DHT22;10358;49.590;11.030;2023-11-22T11:53:53;3.80;99.90
20398;DHT22;10358;49.590;11.030;2023-11-22T11:56:20;3.80;99.90
20398;DHT22;10358;49.590;11.030;2023-11-22T11:58:46;3.80;99.90
20398;DHT22;10358;49.590;11.030;2023-11-22T12:01:13;3.80;99.90
20398;DHT22;10358;49.590;11.030;2023-11-22T12:03:39;3.80;99.90
20398;DHT22;10358;49.590;11.030;2023-11-22T12:06:06;3.80;99.90
20398;DHT22;10358;49.590;11.030;2023-11-22T12:08:31;3.70;99.90
20398;DHT22;10358;49.590;11.030;2023-11-22T12:11:04;3.60;99.90
20398;DHT22;10358;49.590;11.030;2023-11-22T12:13:32;3.30;99.90
20398;DHT22;10358;49.590;11.030;2023-11-22T12:15:58;3.10;99.90
20398;DHT22;10358;49.590;11.030;2023-11-22T12:18:25;3.10;99.90
20398;DHT22;10358;49.590;11.030;2023-11-22T12:20:54;3.00;99.90
20398;DHT22;10358;49.590;11.030;2023-11-22T12:23:21;3.00;99.90
20398;DHT22;10358;49.590;11.030;2023-11-22T12:25:47;3.00;99.90
20398;DHT22;10358;49.590;11.030;2023-11-22T12:28:16;3.00;99.90
20398;DHT22;10358;49.590;11.030;2023-11-22T12:30:43;3.10;99.90
20398;DHT22;10358;49.590;11.030;2023-11-22T12:33:11;3.10;99.90
20398;DHT22;10358;49.590;11.030;2023-11-22T12:35:42;3.00;99.90
20398;DHT22;10358;49.590;11.030;2023-11-22T12:38:09;3.00;99.90
20398;DHT22;10358;49.590;11.030;2023-11-22T12:40:35;2.90;99.90
20398;DHT22;10358;49.590;11.030;2023-11-22T12:43:02;2.90;99.90
20398;DHT22;10358;49.590;11.030;2023-11-22T12:45:30;3.00;99.90
20398;DHT22;10358;49.590;11.030;2023-11-22T12:47:56;3.00;99.90
20398;DHT22;10358;49.590;11.030;2023-11-22T12:50:38;3.00;99.90
20398;DHT22;10358;49.590;11.030;2023-11-22T12:53:13;3.00;99.90
20398;DHT22;10358;49.590;11.030;2023-11-22T12:55:47;2.90;99.90
20398;DHT22;10358;49.590;11.030;2023-11-22T12:58:18;2.90;99.90
20398;DHT22;10358;49.590;11.030;2023-11-22T13:00:45;2.90;99.90
20398;DHT22;10358;49.590;11.030;2023-11-22T13:03:12;2.90;99.90
20398;DHT22;10358;49.590;11.030;2023-11-22T13:05:44;2.90;99.90
20398;DHT22;10358;49.590;11.030;2023-11-22T13:08:11;2.80;99.90
20398;DHT22;10358;49.590;11.030;2023-11-22T13:10:59;2.90;99.90
20398;DHT22;10358;49.590;11.030;2023-11-22T13:13:25;2.90;99.90
20398;DHT22;10358;49.590;11.030;2023-11-22T13:15:52;3.00;99.90
20398;DHT22;10358;49.590;11.030;2023-11-22T13:18:18;3.10;99.90
20398;DHT22;10358;49.590;11.030;2023-11-22T13:20:44;3.10;99.90
20398;DHT22;10358;49.590;11.030;2023-11-22T13:23:10;3.00;99.90
20398;DHT22;10358;49.590;11.030;2023-11-22T13:25:37;2.90;99.90
20398;DHT22;10358;49.590;11.030;2023-11-22T13:28:03;2.90;99.90
20398;DHT22;10358;49.590;11.030;2023-11-22T13:30:30;2.90;99.90
20398;DHT22;10358;49.590;11.030;2023-11-22T13:32:56;2.90;99.90
20398;DHT22;10358;49.590;11.030;2023-11-22T13:35:25;2.80;99.90
20398;DHT22;10358;49.590;11.030;2023-11-22T13:37:53;2.80;99.90
20398;DHT22;10358;49.590;11.030;2023-11-22T13:40:19;2.90;99.90
20398;DHT22;10358;49.590;11.030;2023-11-22T13:42:51;2.80;99.90
20398;DHT22;10358;49.590;11.030;2023-11-22T13:45:20;2.70;99.90
20398;DHT22;10358;49.590;11.030;2023-11-22T13:47:46;2.60;99.90
20398;DHT22;10358;49.590;11.030;2023-11-22T13:50:17;2.50;99.90
20398;DHT22;10358;49.590;11.030;2023-11-22T13:52:50;2.50;99.90
20398;DHT22;10358;49.590;11.030;2023-11-22T13:55:17;2.50;99.90
20398;DHT22;10358;49.590;11.030;2023-11-22T13:57:44;2.50;99.90
20398;DHT22;10358;49.590;11.030;2023-11-22T14:00:10;2.50;99.90
20398;DHT22;10358;49.590;11.030;2023-11-22T14:02:39;2.60;99.90
20398;DHT22;10358;49.590;11.030;2023-11-22T14:05:06;2.50;99.90
20398;DHT22;10358;49.590;11.030;2023-11-22T14:07:34;2.50;99.90
20398;DHT22;10358;49.590;11.030;2023-11-22T14:10:00;2.50;99.90
20398;DHT22;10358;49.590;11.030;2023-11-22T14:12:26;2.50;99.90
20398;DHT22;10358;49.590;11.030;2023-11-22T14:14:51;2.40;99.90
20398;DHT22;10358;49.590;11.030;2023-11-22T14:17:17;2.50;99.90
20398;DHT22;10358;49.590;11.030;2023-11-22T14:19:46;2.50;99.90
20398;DHT22;10358;49.590;11.030;2023-11-22T14:22:12;2.40;99.90
20398;DHT22;10358;49.590;11.030;2023-11-22T14:24:39;2.50;99.90
20398;DHT22;10358;49.590;11.030;2023-11-22T14:27:05;2.50;99.90
20398;DHT22;10358;49.590;11.030;2023-11-22T14:29:31;2.40;99.90
20398;DHT22;10358;49.590;11.030;2023-11-22T14:31:58;2.40;99.90
20398;DHT22;10358;49.590;11.030;2023-11-22T14:34:24;2.50;99.90
20398;DHT22;10358;49.590;11.030;2023-11-22T14:36:49;2.50;99.90
20398;DHT22;10358;49.590;11.030;2023-11-22T14:39:15;2.50;99.90
20398;DHT22;10358;49.590;11.030;2023-11-22T14:41:41;2.50;99.90
20398;DHT22;10358;49.590;11.030;2023-11-22T14:44:06;2.50;99.90
20398;DHT22;10358;49.590;11.030;2023-11-22T14:46:32;2.40;99.90
20398;DHT22;10358;49.590;11.030;2023-11-22T14:48:58;2.50;99.90
20398;DHT22;10358;49.590;11.030;2023-11-22T14:51:23;2.60;99.90
20398;DHT22;10358;49.590;11.030;2023-11-22T14:53:49;2.60;99.90
20398;DHT22;10358;49.590;11.030;2023-11-22T14:56:15;2.60;99.90
20398;DHT22;10358;49.590;11.030;2023-11-22T14:58:40;2.70;99.90
20398;DHT22;10358;49.590;11.030;2023-11-22T15:01:06;2.70;99.90
20398;DHT22;10358;49.590;11.030;2023-11-22T15:03:34;2.70;99.90
20398;DHT22;10358;49.590;11.030;2023-11-22T15:06:01;2.70;99.90
20398;DHT22;10358;49.590;11.030;2023-11-22T15:08:26;2.60;99.90
20398;DHT22;10358;49.590;11.030;2023-11-22T15:10:55;2.50;99.90
20398;DHT22;10358;49.590;11.030;2023-11-22T15:13:20;2.40;99.90
20398;DHT22;10358;49.590;11.030;2023-11-22T15:15:46;2.40;99.90
20398;DHT22;10358;49.590;11.030;2023-11-22T15:18:12;2.40;99.90
20398;DHT22;10358;49.590;11.030;2023-11-22T15:20:37;2.40;99.90
20398;DHT22;10358;49.590;11.030;2023-11-22T15:23:04;2.40;99.90
20398;DHT22;10358;49.590;11.030;2023-11-22T15:25:31;2.40;99.90
20398;DHT22;10358;49.590;11.030;2023-11-22T15:27:56;2.40;99.90
20398;DHT22;10358;49.590;11.030;2023-11-22T15:30:24;2.40;99.90